sensor_id;sensor_type;location;lat;lon;timestamp;pressure;altitude;pressure_sealevel;temperature;humidity
75701;BME280;64321;48.796;44.740;2024-02-21T00:04:16;103132.59;;;-4.91;100.00
75701;BME280;64321;48.796;44.740;2024-02-21T00:09:19;103131.25;;;-4.73;100.00
75701;BME280;64321;48.796;44.740;2024-02-21T00:14:22;103114.22;;;-4.65;100.00
75701;BME280;64321;48.796;44.740;2024-02-21T00:19:24;103114.91;;;-4.74;100.00
75701;BME280;64321;48.796;44.740;2024-02-21T00:24:27;103118.56;;;-4.63;100.00
75701;BME280;64321;48.796;44.740;2024-02-21T00:29:30;103112.50;;;-4.66;100.00
75701;BME280;64321;48.796;44.740;2024-02-21T00:34:32;103111.25;;;-4.83;100.00
75701;BME280;64321;48.796;44.740;2024-02-21T00:39:35;103103.06;;;-4.64;100.00
75701;BME280;64321;48.796;44.740;2024-02-21T00:44:39;103109.56;;;-4.81;100.00
75701;BME280;64321;48.796;44.740;2024-02-21T00:49:41;103107.72;;;-4.88;100.00
75701;BME280;64321;48.796;44.740;2024-02-21T00:54:44;103113.06;;;-5.17;100.00
75701;BME280;64321;48.796;44.740;2024-02-21T00:59:55;103116.84;;;-5.01;100.00
75701;BME280;64321;48.796;44.740;2024-02-21T01:04:57;103113.72;;;-4.90;100.00
75701;BME280;64321;48.796;44.740;2024-02-21T01:10:00;103125.41;;;-5.04;100.00
75701;BME280;64321;48.796;44.740;2024-02-21T01:15:04;103115.91;;;-5.42;100.00
75701;BME280;64321;48.796;44.740;2024-02-21T01:20:07;103117.75;;;-5.38;100.00
75701;BME280;64321;48.796;44.740;2024-02-21T01:25:10;103122.88;;;-5.38;100.00
75701;BME280;64321;48.796;44.740;2024-02-21T01:30:12;103120.59;;;-5.26;100.00
75701;BME280;64321;48.796;44.740;2024-02-21T01:35:15;103124.19;;;-5.19;100.00
75701;BME280;64321;48.796;44.740;2024-02-21T01:40:18;103136.63;;;-5.36;100.00
75701;BME280;64321;48.796;44.740;2024-02-21T01:45:21;103127.81;;;-5.47;100.00
75701;BME280;64321;48.796;44.740;2024-02-21T01:50:24;103128.09;;;-5.35;100.00
75701;BME280;64321;48.796;44.740;2024-02-21T01:55:26;103133.06;;;-5.07;100.00
75701;BME280;64321;48.796;44.740;2024-02-21T02:00:31;103142.16;;;-5.22;100.00
75701;BME280;64321;48.796;44.740;2024-02-21T02:05:34;103142.03;;;-5.27;100.00
75701;BME280;64321;48.796;44.740;2024-02-21T02:10:37;103138.63;;;-5.26;100.00
75701;BME280;64321;48.796;44.740;2024-02-21T02:15:44;103140.50;;;-5.53;100.00
75701;BME280;64321;48.796;44.740;2024-02-21T02:20:47;103137.72;;;-5.63;100.00
75701;BME280;64321;48.796;44.740;2024-02-21T02:25:51;103135.59;;;-5.44;100.00
75701;BME280;64321;48.796;44.740;2024-02-21T02:30:56;103145.94;;;-5.43;100.00
75701;BME280;64321;48.796;44.740;2024-02-21T02:35:59;103147.94;;;-5.66;100.00
75701;BME280;64321;48.796;44.740;2024-02-21T02:41:02;103148.72;;;-5.68;100.00
75701;BME280;64321;48.796;44.740;2024-02-21T02:46:04;103144.44;;;-5.68;100.00
75701;BME280;64321;48.796;44.740;2024-02-21T02:51:07;103146.56;;;-5.51;100.00
75701;BME280;64321;48.796;44.740;2024-02-21T02:56:17;103150.94;;;-5.82;100.00
75701;BME280;64321;48.796;44.740;2024-02-21T03:01:19;103158.00;;;-5.75;100.00
75701;BME280;64321;48.796;44.740;2024-02-21T03:06:22;103158.31;;;-5.63;100.00
75701;BME280;64321;48.796;44.740;2024-02-21T03:11:25;103158.78;;;-5.77;97.66
75701;BME280;64321;48.796;44.740;2024-02-21T03:16:32;103161.59;;;-6.01;100.00
75701;BME280;64321;48.796;44.740;2024-02-21T03:21:34;103165.38;;;-5.88;100.00
75701;BME280;64321;48.796;44.740;2024-02-21T03:26:37;103168.34;;;-5.72;100.00
75701;BME280;64321;48.796;44.740;2024-02-21T03:31:39;103172.91;;;-5.96;100.00
75701;BME280;64321;48.796;44.740;2024-02-21T03:36:42;103179.81;;;-5.93;100.00
75701;BME280;64321;48.796;44.740;2024-02-21T03:41:44;103172.22;;;-5.89;99.25
75701;BME280;64321;48.796;44.740;2024-02-21T03:46:47;103183.00;;;-6.02;100.00
75701;BME280;64321;48.796;44.740;2024-02-21T03:51:50;103184.31;;;-6.16;100.00
75701;BME280;64321;48.796;44.740;2024-02-21T03:56:52;103181.00;;;-6.12;99.69
75701;BME280;64321;48.796;44.740;2024-02-21T04:01:54;103190.38;;;-6.14;100.00
75701;BME280;64321;48.796;44.740;2024-02-21T04:06:58;103195.94;;;-5.99;99.40
75701;BME280;64321;48.796;44.740;2024-02-21T04:12:00;103200.19;;;-6.01;97.73
75701;BME280;64321;48.796;44.740;2024-02-21T04:17:03;103204.72;;;-5.91;97.88
75701;BME280;64321;48.796;44.740;2024-02-21T04:22:07;103209.44;;;-6.06;91.99
75701;BME280;64321;48.796;44.740;2024-02-21T04:27:10;103215.38;;;-6.10;94.06
75701;BME280;64321;48.796;44.740;2024-02-21T04:32:12;103220.44;;;-5.80;92.03
75701;BME280;64321;48.796;44.740;2024-02-21T04:37:15;103228.84;;;-5.86;92.16
75701;BME280;64321;48.796;44.740;2024-02-21T04:42:18;103225.22;;;-5.63;90.54
75701;BME280;64321;48.796;44.740;2024-02-21T04:47:20;103233.69;;;-5.67;87.07
75701;BME280;64321;48.796;44.740;2024-02-21T04:52:23;103239.16;;;-5.54;86.02
75701;BME280;64321;48.796;44.740;2024-02-21T04:57:25;103242.97;;;-5.40;84.87
75701;BME280;64321;48.796;44.740;2024-02-21T05:02:28;103237.94;;;-6.00;85.71
75701;BME280;64321;48.796;44.740;2024-02-21T05:07:30;103242.97;;;-6.03;88.27
75701;BME280;64321;48.796;44.740;2024-02-21T05:12:33;103251.84;;;-6.22;92.70
75701;BME280;64321;48.796;44.740;2024-02-21T05:17:35;103240.78;;;-6.19;88.88
75701;BME280;64321;48.796;44.740;2024-02-21T05:22:38;103241.16;;;-6.36;89.92
75701;BME280;64321;48.796;44.740;2024-02-21T05:27:40;103248.78;;;-6.10;86.92
75701;BME280;64321;48.796;44.740;2024-02-21T05:32:43;103255.03;;;-6.31;82.64
75701;BME280;64321;48.796;44.740;2024-02-21T05:37:46;103257.88;;;-6.21;81.82
75701;BME280;64321;48.796;44.740;2024-02-21T05:42:51;103251.56;;;-6.33;80.55
75701;BME280;64321;48.796;44.740;2024-02-21T05:47:54;103253.56;;;-5.94;80.71
75701;BME280;64321;48.796;44.740;2024-02-21T05:52:56;103242.72;;;-6.12;82.86
75701;BME280;64321;48.796;44.740;2024-02-21T05:57:59;103248.03;;;-6.06;82.24
75701;BME280;64321;48.796;44.740;2024-02-21T06:03:01;103260.41;;;-6.23;85.68
75701;BME280;64321;48.796;44.740;2024-02-21T06:08:04;103259.75;;;-6.16;85.12
75701;BME280;64321;48.796;44.740;2024-02-21T06:13:07;103263.25;;;-6.14;82.97
75701;BME280;64321;48.796;44.740;2024-02-21T06:18:09;103262.13;;;-5.93;82.44
75701;BME280;64321;48.796;44.740;2024-02-21T06:23:13;103252.28;;;-5.77;79.90
75701;BME280;64321;48.796;44.740;2024-02-21T06:28:15;103255.94;;;-5.69;79.38
75701;BME280;64321;48.796;44.740;2024-02-21T06:33:18;103242.88;;;-6.06;80.87
75701;BME280;64321;48.796;44.740;2024-02-21T06:38:25;103255.69;;;-5.78;79.49
75701;BME280;64321;48.796;44.740;2024-02-21T06:43:27;103245.94;;;-5.88;76.13
75701;BME280;64321;48.796;44.740;2024-02-21T06:48:30;103259.44;;;-6.26;74.81
75701;BME280;64321;48.796;44.740;2024-02-21T06:53:32;103263.78;;;-6.24;77.38
75701;BME280;64321;48.796;44.740;2024-02-21T06:58:35;103261.66;;;-5.79;73.72
75701;BME280;64321;48.796;44.740;2024-02-21T07:03:38;103255.59;;;-5.81;71.04
75701;BME280;64321;48.796;44.740;2024-02-21T07:08:40;103259.34;;;-6.01;71.79
75701;BME280;64321;48.796;44.740;2024-02-21T07:13:43;103263.22;;;-5.52;70.98
75701;BME280;64321;48.796;44.740;2024-02-21T07:18:45;103258.13;;;-5.18;69.93
75701;BME280;64321;48.796;44.740;2024-02-21T07:23:48;103260.41;;;-5.30;67.58
75701;BME280;64321;48.796;44.740;2024-02-21T07:28:51;103245.31;;;-4.80;67.27
75701;BME280;64321;48.796;44.740;2024-02-21T07:33:53;103245.69;;;-4.67;65.86
75701;BME280;64321;48.796;44.740;2024-02-21T07:38:56;103246.66;;;-4.60;65.37
75701;BME280;64321;48.796;44.740;2024-02-21T07:43:58;103248.34;;;-4.23;65.01
75701;BME280;64321;48.796;44.740;2024-02-21T07:49:01;103248.44;;;-3.78;63.87
75701;BME280;64321;48.796;44.740;2024-02-21T07:54:04;103235.34;;;-4.28;64.12
75701;BME280;64321;48.796;44.740;2024-02-21T07:59:07;103234.94;;;-4.07;65.04
75701;BME280;64321;48.796;44.740;2024-02-21T08:04:10;103237.69;;;-3.54;63.11
75701;BME280;64321;48.796;44.740;2024-02-21T08:09:13;103230.16;;;-3.43;62.54
75701;BME280;64321;48.796;44.740;2024-02-21T08:14:15;103224.34;;;-3.32;61.73
75701;BME280;64321;48.796;44.740;2024-02-21T08:19:22;103213.41;;;-3.65;62.19
75701;BME280;64321;48.796;44.740;2024-02-21T08:24:27;103221.28;;;-3.58;63.14
75701;BME280;64321;48.796;44.740;2024-02-21T08:29:29;103224.94;;;-3.46;63.09
75701;BME280;64321;48.796;44.740;2024-02-21T08:34:32;103217.63;;;-3.21;62.19
75701;BME280;64321;48.796;44.740;2024-02-21T08:39:36;103220.53;;;-3.52;62.31
75701;BME280;64321;48.796;44.740;2024-02-21T08:44:39;103227.56;;;-3.45;62.32
75701;BME280;64321;48.796;44.740;2024-02-21T08:49:42;103227.06;;;-3.24;61.96
75701;BME280;64321;48.796;44.740;2024-02-21T08:54:45;103213.00;;;-3.38;61.71
75701;BME280;64321;48.796;44.740;2024-02-21T08:59:47;103219.66;;;-3.03;61.49
75701;BME280;64321;48.796;44.740;2024-02-21T09:04:50;103228.13;;;-3.11;60.51
75701;BME280;64321;48.796;44.740;2024-02-21T09:09:52;103219.28;;;-3.26;60.64
75701;BME280;64321;48.796;44.740;2024-02-21T09:14:55;103206.66;;;-3.07;61.87
75701;BME280;64321;48.796;44.740;2024-02-21T09:19:57;103202.72;;;-2.84;59.94
75701;BME280;64321;48.796;44.740;2024-02-21T09:25:06;103195.69;;;-2.93;60.18
75701;BME280;64321;48.796;44.740;2024-02-21T09:30:09;103203.69;;;-2.77;59.76
75701;BME280;64321;48.796;44.740;2024-02-21T09:35:12;103190.28;;;-2.52;59.88
75701;BME280;64321;48.796;44.740;2024-02-21T09:40:18;103196.06;;;-2.03;58.28
75701;BME280;64321;48.796;44.740;2024-02-21T09:45:23;103183.97;;;-2.04;58.48
75701;BME280;64321;48.796;44.740;2024-02-21T09:50:26;103191.94;;;-1.86;57.11
75701;BME280;64321;48.796;44.740;2024-02-21T09:55:33;103196.53;;;-1.58;56.25
75701;BME280;64321;48.796;44.740;2024-02-21T10:00:37;103200.03;;;-1.56;55.97
75701;BME280;64321;48.796;44.740;2024-02-21T10:05:47;103187.94;;;-1.54;54.73
75701;BME280;64321;48.796;44.740;2024-02-21T10:10:52;103190.06;;;-1.13;55.62
75701;BME280;64321;48.796;44.740;2024-02-21T10:16:07;103178.22;;;-0.72;55.39
75701;BME280;64321;48.796;44.740;2024-02-21T10:21:10;103178.22;;;-0.75;55.42
75701;BME280;64321;48.796;44.740;2024-02-21T10:26:14;103176.66;;;-1.60;56.14
75701;BME280;64321;48.796;44.740;2024-02-21T10:31:27;103173.81;;;-1.86;56.99
75701;BME280;64321;48.796;44.740;2024-02-21T10:36:30;103181.78;;;-1.68;57.77
75701;BME280;64321;48.796;44.740;2024-02-21T10:41:33;103168.09;;;-2.32;58.03
75701;BME280;64321;48.796;44.740;2024-02-21T10:46:36;103173.69;;;-1.98;58.46
75701;BME280;64321;48.796;44.740;2024-02-21T10:51:43;103162.03;;;-2.35;57.76
75701;BME280;64321;48.796;44.740;2024-02-21T10:56:49;103163.03;;;-2.23;57.51
75701;BME280;64321;48.796;44.740;2024-02-21T11:01:52;103147.59;;;-2.14;57.57
75701;BME280;64321;48.796;44.740;2024-02-21T11:07:00;103151.63;;;-1.60;56.93
75701;BME280;64321;48.796;44.740;2024-02-21T11:12:05;103139.59;;;-1.55;56.96
75701;BME280;64321;48.796;44.740;2024-02-21T11:17:20;103142.22;;;-1.50;56.73
75701;BME280;64321;48.796;44.740;2024-02-21T11:22:25;103145.94;;;-2.08;57.43
75701;BME280;64321;48.796;44.740;2024-02-21T11:27:33;103143.91;;;-1.55;57.64
75701;BME280;64321;48.796;44.740;2024-02-21T11:32:36;103139.03;;;-2.10;56.25
75701;BME280;64321;48.796;44.740;2024-02-21T11:37:39;103136.69;;;-1.88;57.70
75701;BME280;64321;48.796;44.740;2024-02-21T11:42:42;103135.41;;;-1.37;56.79
75701;BME280;64321;48.796;44.740;2024-02-21T11:47:45;103134.94;;;-1.89;57.35
75701;BME280;64321;48.796;44.740;2024-02-21T11:52:49;103140.56;;;-2.27;58.72
75701;BME280;64321;48.796;44.740;2024-02-21T11:57:51;103135.41;;;-2.24;58.35
75701;BME280;64321;48.796;44.740;2024-02-21T12:02:54;103148.84;;;-1.78;57.73
75701;BME280;64321;48.796;44.740;2024-02-21T12:07:58;103147.44;;;-1.47;57.39
75701;BME280;64321;48.796;44.740;2024-02-21T12:13:08;103136.75;;;-1.81;56.85
75701;BME280;64321;48.796;44.740;2024-02-21T12:18:10;103138.75;;;-2.34;57.51
75701;BME280;64321;48.796;44.740;2024-02-21T12:23:13;103144.69;;;-1.64;56.77
75701;BME280;64321;48.796;44.740;2024-02-21T12:28:17;103131.47;;;-0.84;55.55
75701;BME280;64321;48.796;44.740;2024-02-21T12:33:21;103139.25;;;-0.85;54.57
75701;BME280;64321;48.796;44.740;2024-02-21T12:38:24;103134.25;;;-0.49;54.47
75701;BME280;64321;48.796;44.740;2024-02-21T12:43:27;103146.41;;;-0.42;53.96
75701;BME280;64321;48.796;44.740;2024-02-21T12:48:29;103142.97;;;-0.38;53.05
75701;BME280;64321;48.796;44.740;2024-02-21T12:53:32;103147.09;;;-0.72;54.30
75701;BME280;64321;48.796;44.740;2024-02-21T12:58:36;103156.50;;;-0.87;53.85
75701;BME280;64321;48.796;44.740;2024-02-21T13:03:38;103155.16;;;-1.52;55.69
75701;BME280;64321;48.796;44.740;2024-02-21T13:08:41;103158.38;;;-1.74;56.65
75701;BME280;64321;48.796;44.740;2024-02-21T13:13:43;103157.72;;;-2.35;57.49
75701;BME280;64321;48.796;44.740;2024-02-21T13:18:46;103145.78;;;-2.22;58.38
75701;BME280;64321;48.796;44.740;2024-02-21T13:23:50;103157.69;;;-2.38;57.93
75701;BME280;64321;48.796;44.740;2024-02-21T13:28:52;103157.41;;;-2.58;59.24
75701;BME280;64321;48.796;44.740;2024-02-21T13:33:55;103160.91;;;-2.54;59.82
75701;BME280;64321;48.796;44.740;2024-02-21T13:38:57;103154.19;;;-2.40;59.88
75701;BME280;64321;48.796;44.740;2024-02-21T13:44:00;103158.34;;;-3.13;60.28
75701;BME280;64321;48.796;44.740;2024-02-21T13:49:04;103162.13;;;-3.44;62.94
75701;BME280;64321;48.796;44.740;2024-02-21T13:54:10;103160.97;;;-3.61;64.39
75701;BME280;64321;48.796;44.740;2024-02-21T13:59:13;103167.28;;;-3.92;66.26
75701;BME280;64321;48.796;44.740;2024-02-21T14:04:16;103161.34;;;-4.32;69.35
75701;BME280;64321;48.796;44.740;2024-02-21T14:09:18;103158.88;;;-4.26;71.01
75701;BME280;64321;48.796;44.740;2024-02-21T14:14:21;103160.84;;;-4.56;72.99
75701;BME280;64321;48.796;44.740;2024-02-21T14:19:23;103170.66;;;-4.77;75.67
75701;BME280;64321;48.796;44.740;2024-02-21T14:24:26;103164.66;;;-5.14;78.32
75701;BME280;64321;48.796;44.740;2024-02-21T14:29:30;103169.81;;;-5.14;80.92
75701;BME280;64321;48.796;44.740;2024-02-21T14:34:32;103162.19;;;-5.45;84.92
75701;BME280;64321;48.796;44.740;2024-02-21T14:39:35;103162.88;;;-5.51;85.85
75701;BME280;64321;48.796;44.740;2024-02-21T14:44:37;103165.03;;;-5.68;89.36
75701;BME280;64321;48.796;44.740;2024-02-21T14:49:40;103173.97;;;-5.53;90.06
75701;BME280;64321;48.796;44.740;2024-02-21T14:54:42;103175.06;;;-5.45;89.08
75701;BME280;64321;48.796;44.740;2024-02-21T14:59:49;103173.91;;;-5.56;89.08
75701;BME280;64321;48.796;44.740;2024-02-21T15:04:55;103174.06;;;-5.83;93.20
75701;BME280;64321;48.796;44.740;2024-02-21T15:09:58;103170.59;;;-5.84;93.89
75701;BME280;64321;48.796;44.740;2024-02-21T15:15:01;103176.97;;;-5.70;94.32
75701;BME280;64321;48.796;44.740;2024-02-21T15:20:05;103178.72;;;-5.69;94.13
75701;BME280;64321;48.796;44.740;2024-02-21T15:25:10;103190.75;;;-5.68;93.36
75701;BME280;64321;48.796;44.740;2024-02-21T15:30:18;103197.56;;;-5.70;95.52
75701;BME280;64321;48.796;44.740;2024-02-21T15:35:21;103202.22;;;-5.56;93.79
75701;BME280;64321;48.796;44.740;2024-02-21T15:40:24;103203.44;;;-5.42;93.14
75701;BME280;64321;48.796;44.740;2024-02-21T15:45:26;103200.97;;;-5.39;92.01
75701;BME280;64321;48.796;44.740;2024-02-21T15:50:29;103198.09;;;-5.15;91.15
75701;BME280;64321;48.796;44.740;2024-02-21T15:55:32;103206.03;;;-5.08;88.85
75701;BME280;64321;48.796;44.740;2024-02-21T16:00:34;103195.31;;;-5.25;93.18
75701;BME280;64321;48.796;44.740;2024-02-21T16:05:37;103190.50;;;-5.11;92.25
75701;BME280;64321;48.796;44.740;2024-02-21T16:10:39;103196.59;;;-5.07;89.58
75701;BME280;64321;48.796;44.740;2024-02-21T16:15:42;103199.25;;;-5.04;89.55
75701;BME280;64321;48.796;44.740;2024-02-21T16:20:45;103190.09;;;-4.92;86.54
75701;BME280;64321;48.796;44.740;2024-02-21T16:25:47;103193.19;;;-5.06;87.55
75701;BME280;64321;48.796;44.740;2024-02-21T16:30:50;103186.09;;;-5.15;88.63
75701;BME280;64321;48.796;44.740;2024-02-21T16:35:54;103192.72;;;-4.90;88.32
75701;BME280;64321;48.796;44.740;2024-02-21T16:40:57;103198.53;;;-4.97;89.48
75701;BME280;64321;48.796;44.740;2024-02-21T16:46:00;103191.75;;;-4.94;88.25
75701;BME280;64321;48.796;44.740;2024-02-21T16:51:03;103194.25;;;-4.97;89.01
75701;BME280;64321;48.796;44.740;2024-02-21T16:56:10;103193.44;;;-4.96;87.35
75701;BME280;64321;48.796;44.740;2024-02-21T17:01:12;103201.03;;;-5.02;88.06
75701;BME280;64321;48.796;44.740;2024-02-21T17:06:15;103196.41;;;-5.15;89.65
75701;BME280;64321;48.796;44.740;2024-02-21T17:11:20;103195.56;;;-5.14;92.81
75701;BME280;64321;48.796;44.740;2024-02-21T17:16:22;103188.00;;;-5.08;93.24
75701;BME280;64321;48.796;44.740;2024-02-21T17:21:25;103187.44;;;-4.95;92.53
75701;BME280;64321;48.796;44.740;2024-02-21T17:26:30;103185.03;;;-4.88;91.87
75701;BME280;64321;48.796;44.740;2024-02-21T17:31:34;103185.03;;;-4.88;91.85
75701;BME280;64321;48.796;44.740;2024-02-21T17:36:37;103175.88;;;-4.74;92.19
75701;BME280;64321;48.796;44.740;2024-02-21T17:41:40;103181.66;;;-4.86;93.86
75701;BME280;64321;48.796;44.740;2024-02-21T17:46:42;103173.06;;;-4.86;93.99
75701;BME280;64321;48.796;44.740;2024-02-21T17:51:45;103174.41;;;-5.02;95.25
75701;BME280;64321;48.796;44.740;2024-02-21T17:56:47;103185.41;;;-5.08;94.39
75701;BME280;64321;48.796;44.740;2024-02-21T18:01:50;103178.72;;;-5.00;93.64
75701;BME280;64321;48.796;44.740;2024-02-21T18:06:53;103176.88;;;-5.07;94.69
75701;BME280;64321;48.796;44.740;2024-02-21T18:11:57;103182.88;;;-5.06;96.33
75701;BME280;64321;48.796;44.740;2024-02-21T18:17:03;103180.47;;;-4.99;96.16
75701;BME280;64321;48.796;44.740;2024-02-21T18:22:07;103172.44;;;-5.12;95.40
75701;BME280;64321;48.796;44.740;2024-02-21T18:27:11;103177.97;;;-4.96;94.67
75701;BME280;64321;48.796;44.740;2024-02-21T18:32:14;103179.19;;;-5.16;94.81
75701;BME280;64321;48.796;44.740;2024-02-21T18:37:17;103178.09;;;-5.60;100.00
75701;BME280;64321;48.796;44.740;2024-02-21T18:42:20;103187.19;;;-5.41;100.00
75701;BME280;64321;48.796;44.740;2024-02-21T18:47:23;103185.13;;;-5.20;100.00
75701;BME280;64321;48.796;44.740;2024-02-21T18:52:25;103174.78;;;-5.21;100.00
75701;BME280;64321;48.796;44.740;2024-02-21T18:57:28;103190.66;;;-5.05;100.00
75701;BME280;64321;48.796;44.740;2024-02-21T19:02:31;103192.78;;;-5.23;98.94
75701;BME280;64321;48.796;44.740;2024-02-21T19:07:34;103186.19;;;-5.46;94.83
75701;BME280;64321;48.796;44.740;2024-02-21T19:12:36;103190.63;;;-5.74;95.84
75701;BME280;64321;48.796;44.740;2024-02-21T19:17:39;103191.75;;;-5.63;99.98
75701;BME280;64321;48.796;44.740;2024-02-21T19:22:43;103189.34;;;-5.88;100.00
75701;BME280;64321;48.796;44.740;2024-02-21T19:27:48;103187.06;;;-5.46;100.00
75701;BME280;64321;48.796;44.740;2024-02-21T19:32:51;103169.25;;;-5.70;100.00
75701;BME280;64321;48.796;44.740;2024-02-21T19:37:56;103174.72;;;-5.59;100.00
75701;BME280;64321;48.796;44.740;2024-02-21T19:43:05;103170.56;;;-5.52;100.00
75701;BME280;64321;48.796;44.740;2024-02-21T19:48:07;103175.06;;;-5.45;100.00
75701;BME280;64321;48.796;44.740;2024-02-21T19:53:10;103176.50;;;-5.22;100.00
75701;BME280;64321;48.796;44.740;2024-02-21T19:58:15;103173.66;;;-4.97;100.00
75701;BME280;64321;48.796;44.740;2024-02-21T20:03:17;103175.66;;;-4.83;100.00
75701;BME280;64321;48.796;44.740;2024-02-21T20:08:20;103160.44;;;-4.74;100.00
75701;BME280;64321;48.796;44.740;2024-02-21T20:13:24;103153.47;;;-4.78;100.00
75701;BME280;64321;48.796;44.740;2024-02-21T20:18:26;103151.78;;;-4.76;100.00
75701;BME280;64321;48.796;44.740;2024-02-21T20:23:29;103148.38;;;-4.75;100.00
75701;BME280;64321;48.796;44.740;2024-02-21T20:28:32;103149.97;;;-4.80;100.00
75701;BME280;64321;48.796;44.740;2024-02-21T20:33:35;103139.81;;;-5.12;100.00
75701;BME280;64321;48.796;44.740;2024-02-21T20:38:38;103147.22;;;-5.26;100.00
75701;BME280;64321;48.796;44.740;2024-02-21T20:43:40;103157.25;;;-5.69;100.00
75701;BME280;64321;48.796;44.740;2024-02-21T20:48:42;103162.69;;;-5.93;100.00
75701;BME280;64321;48.796;44.740;2024-02-21T20:53:46;103173.91;;;-5.89;100.00
75701;BME280;64321;48.796;44.740;2024-02-21T20:58:48;103154.91;;;-5.62;100.00
75701;BME280;64321;48.796;44.740;2024-02-21T21:03:51;103142.38;;;-5.81;100.00
75701;BME280;64321;48.796;44.740;2024-02-21T21:08:54;103149.31;;;-5.78;100.00
75701;BME280;64321;48.796;44.740;2024-02-21T21:13:56;103149.84;;;-5.58;100.00
75701;BME280;64321;48.796;44.740;2024-02-21T21:18:59;103150.31;;;-5.40;100.00
75701;BME280;64321;48.796;44.740;2024-02-21T21:24:02;103153.53;;;-5.47;100.00
75701;BME280;64321;48.796;44.740;2024-02-21T21:29:04;103160.97;;;-5.60;100.00
75701;BME280;64321;48.796;44.740;2024-02-21T21:34:07;103164.88;;;-5.74;100.00
75701;BME280;64321;48.796;44.740;2024-02-21T21:39:10;103148.47;;;-5.44;100.00
75701;BME280;64321;48.796;44.740;2024-02-21T21:44:12;103139.16;;;-5.39;100.00
75701;BME280;64321;48.796;44.740;2024-02-21T21:49:16;103132.53;;;-5.30;100.00
75701;BME280;64321;48.796;44.740;2024-02-21T21:54:19;103143.34;;;-5.08;100.00
75701;BME280;64321;48.796;44.740;2024-02-21T21:59:21;103139.06;;;-5.08;100.00
75701;BME280;64321;48.796;44.740;2024-02-21T22:04:24;103148.44;;;-5.10;100.00
75701;BME280;64321;48.796;44.740;2024-02-21T22:09:26;103150.88;;;-5.16;100.00
75701;BME280;64321;48.796;44.740;2024-02-21T22:14:29;103148.75;;;-4.96;100.00
75701;BME280;64321;48.796;44.740;2024-02-21T22:19:31;103153.03;;;-4.97;100.00
75701;BME280;64321;48.796;44.740;2024-02-21T22:24:34;103149.28;;;-5.11;100.00
75701;BME280;64321;48.796;44.740;2024-02-21T22:29:37;103151.22;;;-5.01;100.00
75701;BME280;64321;48.796;44.740;2024-02-21T22:34:42;103151.44;;;-4.92;100.00
75701;BME280;64321;48.796;44.740;2024-02-21T22:39:45;103148.84;;;-4.93;100.00
75701;BME280;64321;48.796;44.740;2024-02-21T22:44:48;103145.34;;;-5.31;100.00
75701;BME280;64321;48.796;44.740;2024-02-21T22:49:51;103160.66;;;-5.37;100.00
75701;BME280;64321;48.796;44.740;2024-02-21T22:54:54;103156.38;;;-5.37;100.00
75701;BME280;64321;48.796;44.740;2024-02-21T22:59:56;103161.03;;;-5.22;100.00
75701;BME280;64321;48.796;44.740;2024-02-21T23:04:58;103151.44;;;-4.92;100.00
75701;BME280;64321;48.796;44.740;2024-02-21T23:10:01;103154.66;;;-5.02;100.00
75701;BME280;64321;48.796;44.740;2024-02-21T23:15:06;103140.41;;;-4.86;100.00
75701;BME280;64321;48.796;44.740;2024-02-21T23:20:09;103145.28;;;-4.98;100.00
75701;BME280;64321;48.796;44.740;2024-02-21T23:25:12;103140.03;;;-5.03;100.00
75701;BME280;64321;48.796;44.740;2024-02-21T23:30:15;103135.41;;;-5.16;100.00
75701;BME280;64321;48.796;44.740;2024-02-21T23:35:18;103126.50;;;-5.30;100.00
75701;BME280;64321;48.796;44.740;2024-02-21T23:40:20;103121.59;;;-5.21;100.00
75701;BME280;64321;48.796;44.740;2024-02-21T23:45:24;103130.06;;;-5.25;100.00
75701;BME280;64321;48.796;44.740;2024-02-21T23:50:27;103122.50;;;-5.17;100.00
75701;BME280;64321;48.796;44.740;2024-02-21T23:55:29;103120.38;;;-4.98;100.00
